sensor_id;sensor_type;location;lat;lon;timestamp;pressure;altitude;pressure_sealevel;temperature;humidity
82222;BME280;71818;52.352;10.912;2023-11-19T00:00:50;99773.16;;;3.88;100.00
82222;BME280;71818;52.352;10.912;2023-11-19T00:03:16;99767.06;;;3.87;100.00
82222;BME280;71818;52.352;10.912;2023-11-19T00:05:41;99746.81;;;3.89;100.00
82222;BME280;71818;52.352;10.912;2023-11-19T00:08:07;99750.38;;;3.88;100.00
82222;BME280;71818;52.352;10.912;2023-11-19T00:10:34;99748.59;;;3.89;100.00
82222;BME280;71818;52.352;10.912;2023-11-19T00:12:59;99730.13;;;3.90;100.00
82222;BME280;71818;52.352;10.912;2023-11-19T00:15:24;99728.34;;;3.91;100.00
82222;BME280;71818;52.352;10.912;2023-11-19T00:17:50;99735.28;;;3.92;100.00
82222;BME280;71818;52.352;10.912;2023-11-19T00:20:18;99727.50;;;3.90;100.00
82222;BME280;71818;52.352;10.912;2023-11-19T00:22:44;99729.69;;;3.98;100.00
82222;BME280;71818;52.352;10.912;2023-11-19T00:25:11;99725.34;;;3.97;100.00
82222;BME280;71818;52.352;10.912;2023-11-19T00:27:36;99717.47;;;3.97;100.00
82222;BME280;71818;52.352;10.912;2023-11-19T00:30:05;99708.66;;;3.98;100.00
82222;BME280;71818;52.352;10.912;2023-11-19T00:32:34;99701.41;;;4.03;100.00
82222;BME280;71818;52.352;10.912;2023-11-19T00:35:00;99692.06;;;3.98;100.00
82222;BME280;71818;52.352;10.912;2023-11-19T00:37:26;99706.81;;;4.00;100.00
82222;BME280;71818;52.352;10.912;2023-11-19T00:39:51;99695.53;;;3.98;100.00
82222;BME280;71818;52.352;10.912;2023-11-19T00:42:17;99691.06;;;4.00;100.00
82222;BME280;71818;52.352;10.912;2023-11-19T00:44:43;99672.78;;;3.99;100.00
82222;BME280;71818;52.352;10.912;2023-11-19T00:47:08;99668.19;;;4.02;100.00
82222;BME280;71818;52.352;10.912;2023-11-19T00:49:33;99668.28;;;4.01;100.00
82222;BME280;71818;52.352;10.912;2023-11-19T00:51:59;99656.00;;;4.01;100.00
82222;BME280;71818;52.352;10.912;2023-11-19T00:54:25;99652.25;;;4.05;100.00
82222;BME280;71818;52.352;10.912;2023-11-19T00:56:54;99651.22;;;4.08;100.00
82222;BME280;71818;52.352;10.912;2023-11-19T00:59:20;99648.50;;;4.09;100.00
82222;BME280;71818;52.352;10.912;2023-11-19T01:01:46;99639.50;;;4.13;100.00
82222;BME280;71818;52.352;10.912;2023-11-19T01:04:14;99640.28;;;4.15;100.00
82222;BME280;71818;52.352;10.912;2023-11-19T01:06:39;99628.00;;;4.16;100.00
82222;BME280;71818;52.352;10.912;2023-11-19T01:09:05;99617.28;;;4.19;100.00
82222;BME280;71818;52.352;10.912;2023-11-19T01:11:31;99616.25;;;4.22;100.00
82222;BME280;71818;52.352;10.912;2023-11-19T01:13:56;99598.06;;;4.18;100.00
82222;BME280;71818;52.352;10.912;2023-11-19T01:16:22;99580.50;;;4.19;100.00
82222;BME280;71818;52.352;10.912;2023-11-19T01:18:48;99580.22;;;4.24;100.00
82222;BME280;71818;52.352;10.912;2023-11-19T01:21:14;99583.78;;;4.23;100.00
82222;BME280;71818;52.352;10.912;2023-11-19T01:23:42;99585.28;;;4.27;100.00
82222;BME280;71818;52.352;10.912;2023-11-19T01:26:12;99590.47;;;4.28;100.00
82222;BME280;71818;52.352;10.912;2023-11-19T01:28:41;99575.72;;;4.26;100.00
82222;BME280;71818;52.352;10.912;2023-11-19T01:31:10;99563.34;;;4.28;100.00
82222;BME280;71818;52.352;10.912;2023-11-19T01:33:36;99566.75;;;4.30;100.00
82222;BME280;71818;52.352;10.912;2023-11-19T01:36:02;99559.31;;;4.36;100.00
82222;BME280;71818;52.352;10.912;2023-11-19T01:38:29;99557.72;;;4.34;100.00
82222;BME280;71818;52.352;10.912;2023-11-19T01:40:56;99560.06;;;4.38;100.00
82222;BME280;71818;52.352;10.912;2023-11-19T01:43:36;99551.53;;;4.35;100.00
82222;BME280;71818;52.352;10.912;2023-11-19T01:46:02;99552.00;;;4.41;100.00
82222;BME280;71818;52.352;10.912;2023-11-19T01:48:29;99541.38;;;4.43;100.00
82222;BME280;71818;52.352;10.912;2023-11-19T01:50:55;99537.66;;;4.47;100.00
82222;BME280;71818;52.352;10.912;2023-11-19T01:53:21;99534.09;;;4.48;100.00
82222;BME280;71818;52.352;10.912;2023-11-19T01:55:47;99517.47;;;4.47;100.00
82222;BME280;71818;52.352;10.912;2023-11-19T01:58:13;99496.06;;;4.54;100.00
82222;BME280;71818;52.352;10.912;2023-11-19T02:00:38;99489.09;;;4.53;100.00
82222;BME280;71818;52.352;10.912;2023-11-19T02:03:06;99489.84;;;4.55;100.00
82222;BME280;71818;52.352;10.912;2023-11-19T02:05:34;99496.34;;;4.49;100.00
82222;BME280;71818;52.352;10.912;2023-11-19T02:08:00;99483.84;;;4.53;100.00
82222;BME280;71818;52.352;10.912;2023-11-19T02:10:26;99492.69;;;4.52;100.00
82222;BME280;71818;52.352;10.912;2023-11-19T02:12:51;99481.88;;;4.56;100.00
82222;BME280;71818;52.352;10.912;2023-11-19T02:15:17;99475.78;;;4.56;100.00
82222;BME280;71818;52.352;10.912;2023-11-19T02:17:44;99471.44;;;4.55;100.00
82222;BME280;71818;52.352;10.912;2023-11-19T02:20:10;99456.31;;;4.58;100.00
82222;BME280;71818;52.352;10.912;2023-11-19T02:22:37;99453.69;;;4.58;100.00
82222;BME280;71818;52.352;10.912;2023-11-19T02:25:17;99442.16;;;4.61;100.00
82222;BME280;71818;52.352;10.912;2023-11-19T02:30:22;99432.78;;;4.57;100.00
82222;BME280;71818;52.352;10.912;2023-11-19T02:32:55;99425.34;;;4.63;100.00
82222;BME280;71818;52.352;10.912;2023-11-19T02:35:25;99427.16;;;4.63;100.00
82222;BME280;71818;52.352;10.912;2023-11-19T02:37:51;99428.19;;;4.60;100.00
82222;BME280;71818;52.352;10.912;2023-11-19T02:40:16;99428.94;;;4.62;100.00
82222;BME280;71818;52.352;10.912;2023-11-19T02:42:42;99436.31;;;4.70;100.00
82222;BME280;71818;52.352;10.912;2023-11-19T02:45:08;99423.25;;;4.68;100.00
82222;BME280;71818;52.352;10.912;2023-11-19T02:47:39;99421.78;;;4.64;100.00
82222;BME280;71818;52.352;10.912;2023-11-19T02:50:05;99420.75;;;4.67;100.00
82222;BME280;71818;52.352;10.912;2023-11-19T02:52:38;99405.69;;;4.69;100.00
82222;BME280;71818;52.352;10.912;2023-11-19T02:55:04;99401.28;;;4.69;100.00
82222;BME280;71818;52.352;10.912;2023-11-19T02:57:34;99394.25;;;4.70;100.00
82222;BME280;71818;52.352;10.912;2023-11-19T03:00:00;99387.84;;;4.74;100.00
82222;BME280;71818;52.352;10.912;2023-11-19T03:02:25;99407.66;;;4.79;100.00
82222;BME280;71818;52.352;10.912;2023-11-19T03:04:59;99391.34;;;4.87;100.00
82222;BME280;71818;52.352;10.912;2023-11-19T03:07:25;99373.63;;;4.91;100.00
82222;BME280;71818;52.352;10.912;2023-11-19T03:09:50;99368.78;;;4.97;100.00
82222;BME280;71818;52.352;10.912;2023-11-19T03:12:16;99360.34;;;5.05;100.00
82222;BME280;71818;52.352;10.912;2023-11-19T03:14:41;99353.41;;;5.04;100.00
82222;BME280;71818;52.352;10.912;2023-11-19T03:17:07;99352.19;;;5.09;100.00
82222;BME280;71818;52.352;10.912;2023-11-19T03:19:34;99342.06;;;5.16;100.00
82222;BME280;71818;52.352;10.912;2023-11-19T03:22:01;99350.72;;;5.18;100.00
82222;BME280;71818;52.352;10.912;2023-11-19T03:24:27;99346.53;;;5.28;100.00
82222;BME280;71818;52.352;10.912;2023-11-19T03:26:52;99335.88;;;5.30;100.00
82222;BME280;71818;52.352;10.912;2023-11-19T03:29:18;99336.19;;;5.51;100.00
82222;BME280;71818;52.352;10.912;2023-11-19T03:31:43;99343.47;;;5.60;100.00
82222;BME280;71818;52.352;10.912;2023-11-19T03:34:10;99319.75;;;5.73;100.00
82222;BME280;71818;52.352;10.912;2023-11-19T03:36:35;99323.84;;;5.77;100.00
82222;BME280;71818;52.352;10.912;2023-11-19T03:39:01;99301.94;;;5.76;100.00
82222;BME280;71818;52.352;10.912;2023-11-19T03:41:28;99299.81;;;5.81;100.00
82222;BME280;71818;52.352;10.912;2023-11-19T03:43:53;99308.25;;;5.86;100.00
82222;BME280;71818;52.352;10.912;2023-11-19T03:46:20;99296.78;;;5.87;100.00
82222;BME280;71818;52.352;10.912;2023-11-19T03:48:49;99305.41;;;5.89;100.00
82222;BME280;71818;52.352;10.912;2023-11-19T03:51:15;99300.13;;;5.89;100.00
82222;BME280;71818;52.352;10.912;2023-11-19T03:53:44;99295.50;;;5.93;100.00
82222;BME280;71818;52.352;10.912;2023-11-19T03:56:10;99288.16;;;5.98;100.00
82222;BME280;71818;52.352;10.912;2023-11-19T03:58:36;99279.97;;;6.14;100.00
82222;BME280;71818;52.352;10.912;2023-11-19T04:01:04;99282.22;;;6.31;100.00
82222;BME280;71818;52.352;10.912;2023-11-19T04:03:29;99280.75;;;6.51;100.00
82222;BME280;71818;52.352;10.912;2023-11-19T04:05:55;99281.91;;;6.71;100.00
82222;BME280;71818;52.352;10.912;2023-11-19T04:08:21;99279.69;;;6.88;100.00
82222;BME280;71818;52.352;10.912;2023-11-19T04:10:47;99290.16;;;7.01;100.00
82222;BME280;71818;52.352;10.912;2023-11-19T04:13:13;99286.72;;;7.23;100.00
82222;BME280;71818;52.352;10.912;2023-11-19T04:15:38;99286.97;;;7.31;100.00
82222;BME280;71818;52.352;10.912;2023-11-19T04:18:04;99277.25;;;7.32;100.00
82222;BME280;71818;52.352;10.912;2023-11-19T04:20:29;99278.47;;;7.39;100.00
82222;BME280;71818;52.352;10.912;2023-11-19T04:22:57;99273.66;;;7.44;100.00
82222;BME280;71818;52.352;10.912;2023-11-19T04:25:22;99268.63;;;7.52;100.00
82222;BME280;71818;52.352;10.912;2023-11-19T04:27:49;99263.09;;;7.55;100.00
82222;BME280;71818;52.352;10.912;2023-11-19T04:30:15;99260.69;;;7.63;100.00
82222;BME280;71818;52.352;10.912;2023-11-19T04:32:40;99259.38;;;7.69;100.00
82222;BME280;71818;52.352;10.912;2023-11-19T04:35:06;99258.75;;;7.65;100.00
82222;BME280;71818;52.352;10.912;2023-11-19T04:37:32;99260.47;;;7.66;100.00
82222;BME280;71818;52.352;10.912;2023-11-19T04:39:58;99263.78;;;7.79;100.00
82222;BME280;71818;52.352;10.912;2023-11-19T04:42:25;99265.25;;;7.72;100.00
82222;BME280;71818;52.352;10.912;2023-11-19T04:44:50;99264.66;;;7.69;100.00
82222;BME280;71818;52.352;10.912;2023-11-19T04:47:16;99257.91;;;7.76;100.00
82222;BME280;71818;52.352;10.912;2023-11-19T04:49:41;99260.69;;;7.74;100.00
82222;BME280;71818;52.352;10.912;2023-11-19T04:52:09;99253.84;;;7.83;100.00
82222;BME280;71818;52.352;10.912;2023-11-19T04:54:43;99249.53;;;7.82;100.00
82222;BME280;71818;52.352;10.912;2023-11-19T04:57:09;99259.72;;;7.87;100.00
82222;BME280;71818;52.352;10.912;2023-11-19T04:59:36;99258.63;;;7.89;100.00
82222;BME280;71818;52.352;10.912;2023-11-19T05:02:02;99262.56;;;7.95;100.00
82222;BME280;71818;52.352;10.912;2023-11-19T05:04:29;99260.91;;;7.94;100.00
82222;BME280;71818;52.352;10.912;2023-11-19T05:06:54;99246.44;;;8.09;100.00
82222;BME280;71818;52.352;10.912;2023-11-19T05:09:20;99257.84;;;8.09;100.00
82222;BME280;71818;52.352;10.912;2023-11-19T05:11:45;99248.97;;;8.10;100.00
82222;BME280;71818;52.352;10.912;2023-11-19T05:14:11;99251.50;;;8.12;100.00
82222;BME280;71818;52.352;10.912;2023-11-19T05:16:41;99243.06;;;8.18;100.00
82222;BME280;71818;52.352;10.912;2023-11-19T05:19:08;99249.44;;;8.16;100.00
82222;BME280;71818;52.352;10.912;2023-11-19T05:21:34;99257.63;;;8.13;100.00
82222;BME280;71818;52.352;10.912;2023-11-19T05:24:01;99248.34;;;8.18;100.00
82222;BME280;71818;52.352;10.912;2023-11-19T05:26:29;99249.44;;;8.16;100.00
82222;BME280;71818;52.352;10.912;2023-11-19T05:28:55;99246.94;;;8.14;100.00
82222;BME280;71818;52.352;10.912;2023-11-19T05:31:20;99255.31;;;8.19;100.00
82222;BME280;71818;52.352;10.912;2023-11-19T05:33:46;99254.09;;;8.23;100.00
82222;BME280;71818;52.352;10.912;2023-11-19T05:36:12;99249.41;;;8.27;100.00
82222;BME280;71818;52.352;10.912;2023-11-19T05:38:38;99245.81;;;8.28;100.00
82222;BME280;71818;52.352;10.912;2023-11-19T05:41:04;99238.81;;;8.27;100.00
82222;BME280;71818;52.352;10.912;2023-11-19T05:43:30;99240.41;;;8.29;100.00
82222;BME280;71818;52.352;10.912;2023-11-19T05:45:56;99239.44;;;8.30;100.00
82222;BME280;71818;52.352;10.912;2023-11-19T05:48:21;99232.59;;;8.28;100.00
82222;BME280;71818;52.352;10.912;2023-11-19T05:50:47;99237.50;;;8.32;100.00
82222;BME280;71818;52.352;10.912;2023-11-19T05:53:14;99235.59;;;8.34;100.00
82222;BME280;71818;52.352;10.912;2023-11-19T05:55:40;99222.81;;;8.39;100.00
82222;BME280;71818;52.352;10.912;2023-11-19T05:58:14;99224.63;;;8.39;100.00
82222;BME280;71818;52.352;10.912;2023-11-19T06:00:40;99222.94;;;8.38;100.00
82222;BME280;71818;52.352;10.912;2023-11-19T06:03:07;99215.38;;;8.33;100.00
82222;BME280;71818;52.352;10.912;2023-11-19T06:05:32;99216.69;;;8.39;100.00
82222;BME280;71818;52.352;10.912;2023-11-19T06:07:58;99218.50;;;8.38;100.00
82222;BME280;71818;52.352;10.912;2023-11-19T06:10:24;99213.69;;;8.44;100.00
82222;BME280;71818;52.352;10.912;2023-11-19T06:12:58;99218.72;;;8.47;100.00
82222;BME280;71818;52.352;10.912;2023-11-19T06:15:27;99204.66;;;8.46;100.00
82222;BME280;71818;52.352;10.912;2023-11-19T06:17:53;99218.00;;;8.45;100.00
82222;BME280;71818;52.352;10.912;2023-11-19T06:20:19;99212.84;;;8.43;100.00
82222;BME280;71818;52.352;10.912;2023-11-19T06:22:45;99215.16;;;8.36;100.00
82222;BME280;71818;52.352;10.912;2023-11-19T06:25:11;99217.66;;;8.38;100.00
82222;BME280;71818;52.352;10.912;2023-11-19T06:27:37;99208.00;;;8.48;100.00
82222;BME280;71818;52.352;10.912;2023-11-19T06:30:03;99204.56;;;8.36;100.00
82222;BME280;71818;52.352;10.912;2023-11-19T06:32:28;99207.34;;;8.24;100.00
82222;BME280;71818;52.352;10.912;2023-11-19T06:34:54;99211.53;;;8.26;100.00
82222;BME280;71818;52.352;10.912;2023-11-19T06:37:20;99205.97;;;8.41;100.00
82222;BME280;71818;52.352;10.912;2023-11-19T06:39:45;99195.28;;;8.42;100.00
82222;BME280;71818;52.352;10.912;2023-11-19T06:42:10;99209.09;;;8.46;100.00
82222;BME280;71818;52.352;10.912;2023-11-19T06:44:36;99205.00;;;8.42;100.00
82222;BME280;71818;52.352;10.912;2023-11-19T06:47:01;99218.00;;;8.45;100.00
82222;BME280;71818;52.352;10.912;2023-11-19T06:49:27;99228.31;;;8.48;100.00
82222;BME280;71818;52.352;10.912;2023-11-19T06:51:52;99226.97;;;8.53;100.00
82222;BME280;71818;52.352;10.912;2023-11-19T06:54:18;99230.59;;;8.52;100.00
82222;BME280;71818;52.352;10.912;2023-11-19T06:56:43;99225.41;;;8.51;100.00
82222;BME280;71818;52.352;10.912;2023-11-19T06:59:09;99213.38;;;8.58;100.00
82222;BME280;71818;52.352;10.912;2023-11-19T07:01:37;99219.38;;;8.60;100.00
82222;BME280;71818;52.352;10.912;2023-11-19T07:04:03;99222.16;;;8.58;100.00
82222;BME280;71818;52.352;10.912;2023-11-19T07:06:34;99237.63;;;8.63;100.00
82222;BME280;71818;52.352;10.912;2023-11-19T07:09:00;99230.16;;;8.68;100.00
82222;BME280;71818;52.352;10.912;2023-11-19T07:11:37;99237.28;;;8.56;100.00
82222;BME280;71818;52.352;10.912;2023-11-19T07:14:04;99238.13;;;8.57;100.00
82222;BME280;71818;52.352;10.912;2023-11-19T07:16:29;99229.00;;;8.61;100.00
82222;BME280;71818;52.352;10.912;2023-11-19T07:18:55;99236.94;;;8.61;100.00
82222;BME280;71818;52.352;10.912;2023-11-19T07:21:20;99239.75;;;8.69;100.00
82222;BME280;71818;52.352;10.912;2023-11-19T07:23:46;99231.31;;;8.75;100.00
82222;BME280;71818;52.352;10.912;2023-11-19T07:26:12;99245.41;;;8.76;100.00
82222;BME280;71818;52.352;10.912;2023-11-19T07:28:37;99251.53;;;8.76;100.00
82222;BME280;71818;52.352;10.912;2023-11-19T07:31:05;99250.09;;;8.72;100.00
82222;BME280;71818;52.352;10.912;2023-11-19T07:33:33;99249.16;;;8.73;100.00
82222;BME280;71818;52.352;10.912;2023-11-19T07:35:58;99257.19;;;8.72;100.00
82222;BME280;71818;52.352;10.912;2023-11-19T07:38:24;99245.53;;;8.74;100.00
82222;BME280;71818;52.352;10.912;2023-11-19T07:40:49;99257.84;;;8.85;100.00
82222;BME280;71818;52.352;10.912;2023-11-19T07:43:15;99253.16;;;8.88;100.00
82222;BME280;71818;52.352;10.912;2023-11-19T07:45:41;99245.66;;;8.93;100.00
82222;BME280;71818;52.352;10.912;2023-11-19T07:48:09;99247.34;;;8.94;100.00
82222;BME280;71818;52.352;10.912;2023-11-19T07:50:34;99253.59;;;8.93;100.00
82222;BME280;71818;52.352;10.912;2023-11-19T07:53:00;99238.94;;;8.89;100.00
82222;BME280;71818;52.352;10.912;2023-11-19T07:55:25;99255.41;;;8.93;100.00
82222;BME280;71818;52.352;10.912;2023-11-19T07:57:52;99269.97;;;8.87;100.00
82222;BME280;71818;52.352;10.912;2023-11-19T08:00:18;99271.91;;;8.85;100.00
82222;BME280;71818;52.352;10.912;2023-11-19T08:02:44;99268.25;;;8.77;100.00
82222;BME280;71818;52.352;10.912;2023-11-19T08:05:10;99265.38;;;8.68;100.00
82222;BME280;71818;52.352;10.912;2023-11-19T08:07:37;99263.56;;;8.69;100.00
82222;BME280;71818;52.352;10.912;2023-11-19T08:10:02;99272.47;;;8.68;100.00
82222;BME280;71818;52.352;10.912;2023-11-19T08:12:30;99287.53;;;8.67;100.00
82222;BME280;71818;52.352;10.912;2023-11-19T08:14:56;99286.69;;;8.67;100.00
82222;BME280;71818;52.352;10.912;2023-11-19T08:17:23;99283.78;;;8.70;100.00
82222;BME280;71818;52.352;10.912;2023-11-19T08:19:49;99284.63;;;8.71;100.00
82222;BME280;71818;52.352;10.912;2023-11-19T08:22:15;99274.41;;;8.66;100.00
82222;BME280;71818;52.352;10.912;2023-11-19T08:24:42;99285.72;;;8.68;100.00
82222;BME280;71818;52.352;10.912;2023-11-19T08:27:08;99280.16;;;8.71;100.00
82222;BME280;71818;52.352;10.912;2023-11-19T08:29:34;99279.19;;;8.72;100.00
82222;BME280;71818;52.352;10.912;2023-11-19T08:32:01;99273.88;;;9.04;100.00
82222;BME280;71818;52.352;10.912;2023-11-19T08:34:29;99265.78;;;9.57;100.00
82222;BME280;71818;52.352;10.912;2023-11-19T08:36:55;99269.25;;;9.88;100.00
82222;BME280;71818;52.352;10.912;2023-11-19T08:39:21;99266.19;;;9.93;100.00
82222;BME280;71818;52.352;10.912;2023-11-19T08:41:47;99271.09;;;9.97;100.00
82222;BME280;71818;52.352;10.912;2023-11-19T08:44:13;99263.88;;;10.18;100.00
82222;BME280;71818;52.352;10.912;2023-11-19T08:46:39;99258.22;;;10.52;100.00
82222;BME280;71818;52.352;10.912;2023-11-19T08:49:11;99261.44;;;10.85;100.00
82222;BME280;71818;52.352;10.912;2023-11-19T08:51:36;99271.50;;;10.91;100.00
82222;BME280;71818;52.352;10.912;2023-11-19T08:54:02;99275.25;;;10.40;100.00
82222;BME280;71818;52.352;10.912;2023-11-19T08:56:28;99274.72;;;10.65;100.00
82222;BME280;71818;52.352;10.912;2023-11-19T08:58:57;99273.47;;;10.79;100.00
82222;BME280;71818;52.352;10.912;2023-11-19T09:01:23;99265.50;;;10.89;100.00
82222;BME280;71818;52.352;10.912;2023-11-19T09:03:50;99278.56;;;11.29;100.00
82222;BME280;71818;52.352;10.912;2023-11-19T09:06:15;99279.06;;;11.52;100.00
82222;BME280;71818;52.352;10.912;2023-11-19T09:08:42;99265.31;;;11.56;100.00
82222;BME280;71818;52.352;10.912;2023-11-19T09:11:08;99259.94;;;11.38;100.00
82222;BME280;71818;52.352;10.912;2023-11-19T09:13:37;99263.75;;;11.63;100.00
82222;BME280;71818;52.352;10.912;2023-11-19T09:16:02;99268.44;;;12.16;100.00
82222;BME280;71818;52.352;10.912;2023-11-19T09:18:31;99275.50;;;11.71;100.00
82222;BME280;71818;52.352;10.912;2023-11-19T09:20:57;99276.34;;;11.24;100.00
82222;BME280;71818;52.352;10.912;2023-11-19T09:23:23;99282.56;;;11.43;100.00
82222;BME280;71818;52.352;10.912;2023-11-19T09:25:50;99296.63;;;11.16;100.00
82222;BME280;71818;52.352;10.912;2023-11-19T09:28:16;99284.00;;;11.37;100.00
82222;BME280;71818;52.352;10.912;2023-11-19T09:30:41;99284.38;;;11.52;100.00
82222;BME280;71818;52.352;10.912;2023-11-19T09:33:06;99298.13;;;11.28;100.00
82222;BME280;71818;52.352;10.912;2023-11-19T09:35:32;99287.06;;;11.32;100.00
82222;BME280;71818;52.352;10.912;2023-11-19T09:37:58;99296.63;;;11.16;100.00
82222;BME280;71818;52.352;10.912;2023-11-19T09:40:24;99284.56;;;11.31;100.00
82222;BME280;71818;52.352;10.912;2023-11-19T09:42:50;99296.00;;;11.51;100.00
82222;BME280;71818;52.352;10.912;2023-11-19T09:45:17;99303.31;;;11.29;100.00
82222;BME280;71818;52.352;10.912;2023-11-19T09:47:46;99296.09;;;10.93;100.00
82222;BME280;71818;52.352;10.912;2023-11-19T09:50:19;99285.06;;;10.78;100.00
82222;BME280;71818;52.352;10.912;2023-11-19T09:52:45;99286.72;;;10.69;100.00
82222;BME280;71818;52.352;10.912;2023-11-19T09:55:11;99287.41;;;10.71;100.00
82222;BME280;71818;52.352;10.912;2023-11-19T09:57:38;99275.97;;;10.90;100.00
82222;BME280;71818;52.352;10.912;2023-11-19T10:00:07;99285.81;;;11.36;100.00
82222;BME280;71818;52.352;10.912;2023-11-19T10:02:34;99279.22;;;11.50;100.00
82222;BME280;71818;52.352;10.912;2023-11-19T10:05:05;99278.16;;;11.80;100.00
82222;BME280;71818;52.352;10.912;2023-11-19T10:07:32;99286.81;;;11.73;100.00
82222;BME280;71818;52.352;10.912;2023-11-19T10:10:04;99291.16;;;11.83;100.00
82222;BME280;71818;52.352;10.912;2023-11-19T10:12:29;99286.97;;;11.81;100.00
82222;BME280;71818;52.352;10.912;2023-11-19T10:14:56;99299.75;;;11.48;100.00
82222;BME280;71818;52.352;10.912;2023-11-19T10:17:35;99292.75;;;11.47;100.00
82222;BME280;71818;52.352;10.912;2023-11-19T10:20:01;99299.03;;;11.65;100.00
82222;BME280;71818;52.352;10.912;2023-11-19T10:22:28;99294.34;;;11.87;100.00
82222;BME280;71818;52.352;10.912;2023-11-19T10:24:54;99288.03;;;12.15;100.00
82222;BME280;71818;52.352;10.912;2023-11-19T10:27:19;99286.31;;;11.96;100.00
82222;BME280;71818;52.352;10.912;2023-11-19T10:29:45;99287.56;;;12.02;99.32
82222;BME280;71818;52.352;10.912;2023-11-19T10:32:12;99287.97;;;12.25;100.00
82222;BME280;71818;52.352;10.912;2023-11-19T10:34:38;99306.28;;;12.10;99.76
82222;BME280;71818;52.352;10.912;2023-11-19T10:37:05;99290.34;;;12.01;100.00
82222;BME280;71818;52.352;10.912;2023-11-19T10:39:53;99299.13;;;11.74;100.00
82222;BME280;71818;52.352;10.912;2023-11-19T10:42:20;99296.09;;;11.59;100.00
82222;BME280;71818;52.352;10.912;2023-11-19T10:44:46;99298.66;;;11.78;100.00
82222;BME280;71818;52.352;10.912;2023-11-19T10:47:13;99297.28;;;11.74;100.00
82222;BME280;71818;52.352;10.912;2023-11-19T10:49:39;99297.00;;;11.87;100.00
82222;BME280;71818;52.352;10.912;2023-11-19T10:52:08;99285.59;;;11.94;100.00
82222;BME280;71818;52.352;10.912;2023-11-19T10:54:34;99283.44;;;12.08;99.73
82222;BME280;71818;52.352;10.912;2023-11-19T10:57:01;99297.97;;;11.95;100.00
82222;BME280;71818;52.352;10.912;2023-11-19T10:59:30;99296.31;;;12.12;100.00
82222;BME280;71818;52.352;10.912;2023-11-19T11:01:56;99302.75;;;11.73;100.00
82222;BME280;71818;52.352;10.912;2023-11-19T11:04:25;99292.91;;;11.46;100.00
82222;BME280;71818;52.352;10.912;2023-11-19T11:06:54;99301.75;;;11.36;100.00
82222;BME280;71818;52.352;10.912;2023-11-19T11:09:19;99294.50;;;11.29;100.00
82222;BME280;71818;52.352;10.912;2023-11-19T11:11:47;99306.94;;;11.28;100.00
82222;BME280;71818;52.352;10.912;2023-11-19T11:14:13;99296.69;;;11.43;100.00
82222;BME280;71818;52.352;10.912;2023-11-19T11:16:42;99303.00;;;11.52;100.00
82222;BME280;71818;52.352;10.912;2023-11-19T11:19:12;99304.50;;;11.54;100.00
82222;BME280;71818;52.352;10.912;2023-11-19T11:21:42;99298.38;;;11.44;100.00
82222;BME280;71818;52.352;10.912;2023-11-19T11:26:57;99306.94;;;11.28;100.00
82222;BME280;71818;52.352;10.912;2023-11-19T11:29:35;99297.44;;;11.26;100.00
82222;BME280;71818;52.352;10.912;2023-11-19T11:32:36;99312.81;;;11.32;100.00
82222;BME280;71818;52.352;10.912;2023-11-19T11:35:27;99306.56;;;11.80;100.00
82222;BME280;71818;52.352;10.912;2023-11-19T11:38:09;99305.97;;;11.86;99.91
82222;BME280;71818;52.352;10.912;2023-11-19T11:40:34;99301.31;;;11.98;100.00
82222;BME280;71818;52.352;10.912;2023-11-19T11:43:01;99296.03;;;12.15;98.14
82222;BME280;71818;52.352;10.912;2023-11-19T11:45:38;99290.91;;;12.04;96.82
82222;BME280;71818;52.352;10.912;2023-11-19T11:48:12;99310.41;;;11.95;99.46
82222;BME280;71818;52.352;10.912;2023-11-19T11:50:53;99309.06;;;11.72;99.97
82222;BME280;71818;52.352;10.912;2023-11-19T11:53:23;99302.94;;;11.61;100.00
82222;BME280;71818;52.352;10.912;2023-11-19T11:58:21;99300.84;;;11.65;100.00
82222;BME280;71818;52.352;10.912;2023-11-19T12:00:51;99296.41;;;11.93;95.85
82222;BME280;71818;52.352;10.912;2023-11-19T12:03:20;99307.19;;;12.46;91.51
82222;BME280;71818;52.352;10.912;2023-11-19T12:05:47;99289.38;;;12.29;91.87
82222;BME280;71818;52.352;10.912;2023-11-19T12:08:13;99298.41;;;12.36;93.20
82222;BME280;71818;52.352;10.912;2023-11-19T12:10:51;99285.31;;;12.25;92.61
82222;BME280;71818;52.352;10.912;2023-11-19T12:13:18;99310.38;;;12.50;92.92
82222;BME280;71818;52.352;10.912;2023-11-19T12:18:31;99307.69;;;12.32;93.66
82222;BME280;71818;52.352;10.912;2023-11-19T12:20:58;99303.00;;;12.97;91.77
82222;BME280;71818;52.352;10.912;2023-11-19T12:23:26;99295.09;;;12.70;90.79
82222;BME280;71818;52.352;10.912;2023-11-19T12:25:52;99295.03;;;12.79;91.22
82222;BME280;71818;52.352;10.912;2023-11-19T12:28:17;99299.91;;;12.21;94.40
82222;BME280;71818;52.352;10.912;2023-11-19T12:30:44;99306.56;;;11.80;95.28
82222;BME280;71818;52.352;10.912;2023-11-19T12:33:11;99300.38;;;11.79;96.01
82222;BME280;71818;52.352;10.912;2023-11-19T12:38:05;99291.38;;;11.90;96.20
82222;BME280;71818;52.352;10.912;2023-11-19T12:40:31;99297.31;;;11.84;98.32
82222;BME280;71818;52.352;10.912;2023-11-19T12:42:57;99293.03;;;11.54;98.94
82222;BME280;71818;52.352;10.912;2023-11-19T12:45:23;99301.56;;;11.48;99.65
82222;BME280;71818;52.352;10.912;2023-11-19T12:48:07;99292.88;;;11.65;98.92
82222;BME280;71818;52.352;10.912;2023-11-19T12:50:55;99297.44;;;11.73;98.68
82222;BME280;71818;52.352;10.912;2023-11-19T12:53:23;99292.88;;;11.65;99.20
82222;BME280;71818;52.352;10.912;2023-11-19T12:55:50;99295.16;;;11.50;100.00
82222;BME280;71818;52.352;10.912;2023-11-19T12:58:35;99291.81;;;11.38;100.00
82222;BME280;71818;52.352;10.912;2023-11-19T13:01:05;99297.13;;;11.38;100.00